sensor_id;sensor_type;location;lat;lon;timestamp;pressure;altitude;pressure_sealevel;temperature;humidity
36192;BME280;22233;42.708;23.360;2022-10-16T00:00:56;96055.16;;;12.00;65.10
36192;BME280;22233;42.708;23.360;2022-10-16T00:03:21;96065.53;;;11.84;65.44
36192;BME280;22233;42.708;23.360;2022-10-16T00:05:47;96063.81;;;12.02;66.14
36192;BME280;22233;42.708;23.360;2022-10-16T00:08:12;96068.69;;;11.91;65.29
36192;BME280;22233;42.708;23.360;2022-10-16T00:10:38;96066.59;;;12.11;65.37
36192;BME280;22233;42.708;23.360;2022-10-16T00:13:05;96073.06;;;12.15;65.18
36192;BME280;22233;42.708;23.360;2022-10-16T00:15:34;96079.81;;;12.17;65.23
36192;BME280;22233;42.708;23.360;2022-10-16T00:18:02;96082.66;;;12.12;65.05
36192;BME280;22233;42.708;23.360;2022-10-16T00:20:27;96087.50;;;12.15;64.32
36192;BME280;22233;42.708;23.360;2022-10-16T00:22:53;96089.63;;;11.91;65.26
36192;BME280;22233;42.708;23.360;2022-10-16T00:25:18;96090.63;;;11.95;65.19
36192;BME280;22233;42.708;23.360;2022-10-16T00:27:43;96095.50;;;11.98;65.76
36192;BME280;22233;42.708;23.360;2022-10-16T00:30:09;96080.66;;;11.90;65.32
36192;BME280;22233;42.708;23.360;2022-10-16T00:32:35;96094.47;;;12.08;64.93
36192;BME280;22233;42.708;23.360;2022-10-16T00:35:00;96092.13;;;12.01;64.08
36192;BME280;22233;42.708;23.360;2022-10-16T00:37:25;96107.59;;;11.92;64.13
36192;BME280;22233;42.708;23.360;2022-10-16T00:39:51;96102.13;;;11.78;64.84
36192;BME280;22233;42.708;23.360;2022-10-16T00:42:18;96095.91;;;11.91;64.47
36192;BME280;22233;42.708;23.360;2022-10-16T00:44:49;96109.00;;;11.62;65.50
36192;BME280;22233;42.708;23.360;2022-10-16T00:47:29;96097.78;;;11.77;64.93
36192;BME280;22233;42.708;23.360;2022-10-16T00:50:28;96090.97;;;11.66;64.98
36192;BME280;22233;42.708;23.360;2022-10-16T00:52:56;96081.88;;;11.70;65.08
36192;BME280;22233;42.708;23.360;2022-10-16T00:55:23;96087.81;;;11.58;65.56
36192;BME280;22233;42.708;23.360;2022-10-16T00:57:49;96091.94;;;11.42;65.39
36192;BME280;22233;42.708;23.360;2022-10-16T01:00:21;96086.44;;;11.47;65.80
36192;BME280;22233;42.708;23.360;2022-10-16T01:02:54;96102.75;;;11.61;65.07
36192;BME280;22233;42.708;23.360;2022-10-16T01:05:27;96096.31;;;11.57;64.73
36192;BME280;22233;42.708;23.360;2022-10-16T01:08:08;96092.03;;;11.51;65.44
36192;BME280;22233;42.708;23.360;2022-10-16T01:10:35;96106.66;;;11.69;65.21
36192;BME280;22233;42.708;23.360;2022-10-16T01:13:18;96106.97;;;11.53;65.55
36192;BME280;22233;42.708;23.360;2022-10-16T01:15:55;96101.34;;;11.64;64.85
36192;BME280;22233;42.708;23.360;2022-10-16T01:21:44;96095.47;;;11.70;65.24
36192;BME280;22233;42.708;23.360;2022-10-16T01:24:38;96091.66;;;11.71;64.46
36192;BME280;22233;42.708;23.360;2022-10-16T01:29:53;96073.91;;;11.60;64.32
36192;BME280;22233;42.708;23.360;2022-10-16T01:35:05;96096.47;;;11.74;65.16
36192;BME280;22233;42.708;23.360;2022-10-16T01:37:41;96091.47;;;11.68;64.03
36192;BME280;22233;42.708;23.360;2022-10-16T01:40:11;96087.22;;;11.62;64.19
36192;BME280;22233;42.708;23.360;2022-10-16T01:42:42;96093.25;;;11.72;64.59
36192;BME280;22233;42.708;23.360;2022-10-16T01:45:11;96095.78;;;11.69;64.56
36192;BME280;22233;42.708;23.360;2022-10-16T01:47:39;96096.41;;;11.66;64.27
36192;BME280;22233;42.708;23.360;2022-10-16T01:50:06;96101.84;;;11.52;65.01
36192;BME280;22233;42.708;23.360;2022-10-16T01:52:36;96106.06;;;11.44;64.65
36192;BME280;22233;42.708;23.360;2022-10-16T01:55:05;96108.38;;;11.51;64.54
36192;BME280;22233;42.708;23.360;2022-10-16T01:57:32;96112.72;;;11.52;64.41
36192;BME280;22233;42.708;23.360;2022-10-16T02:00:03;96093.88;;;11.42;64.21
36192;BME280;22233;42.708;23.360;2022-10-16T02:02:30;96111.00;;;11.42;64.89
36192;BME280;22233;42.708;23.360;2022-10-16T02:05:21;96109.41;;;11.41;64.93
36192;BME280;22233;42.708;23.360;2022-10-16T02:07:48;96101.81;;;11.38;64.24
36192;BME280;22233;42.708;23.360;2022-10-16T02:10:14;96119.78;;;11.39;64.46
36192;BME280;22233;42.708;23.360;2022-10-16T02:12:45;96099.06;;;11.10;64.99
36192;BME280;22233;42.708;23.360;2022-10-16T02:15:13;96132.16;;;10.98;65.00
36192;BME280;22233;42.708;23.360;2022-10-16T02:17:38;96130.81;;;11.15;65.59
36192;BME280;22233;42.708;23.360;2022-10-16T02:20:04;96130.91;;;10.77;66.20
36192;BME280;22233;42.708;23.360;2022-10-16T02:22:34;96137.22;;;11.05;65.33
36192;BME280;22233;42.708;23.360;2022-10-16T02:25:17;96124.22;;;11.02;65.77
36192;BME280;22233;42.708;23.360;2022-10-16T02:27:53;96143.47;;;11.06;65.52
36192;BME280;22233;42.708;23.360;2022-10-16T02:32:51;96143.97;;;11.08;65.45
36192;BME280;22233;42.708;23.360;2022-10-16T02:35:18;96130.25;;;10.99;65.52
36192;BME280;22233;42.708;23.360;2022-10-16T02:37:46;96132.53;;;10.92;64.94
36192;BME280;22233;42.708;23.360;2022-10-16T02:40:12;96136.78;;;10.65;65.78
36192;BME280;22233;42.708;23.360;2022-10-16T02:42:39;96128.28;;;10.53;66.08
36192;BME280;22233;42.708;23.360;2022-10-16T02:45:06;96136.19;;;10.68;65.66
36192;BME280;22233;42.708;23.360;2022-10-16T02:47:32;96143.97;;;10.56;66.28
36192;BME280;22233;42.708;23.360;2022-10-16T02:49:57;96147.50;;;10.37;66.50
36192;BME280;22233;42.708;23.360;2022-10-16T02:52:23;96138.31;;;10.14;66.31
36192;BME280;22233;42.708;23.360;2022-10-16T02:54:48;96149.88;;;10.20;67.16
36192;BME280;22233;42.708;23.360;2022-10-16T02:57:14;96153.09;;;10.03;67.47
36192;BME280;22233;42.708;23.360;2022-10-16T02:59:39;96152.22;;;10.08;67.05
36192;BME280;22233;42.708;23.360;2022-10-16T03:02:04;96150.00;;;9.91;67.68
36192;BME280;22233;42.708;23.360;2022-10-16T03:04:30;96146.00;;;9.83;67.49
36192;BME280;22233;42.708;23.360;2022-10-16T03:06:55;96146.09;;;9.78;68.16
36192;BME280;22233;42.708;23.360;2022-10-16T03:09:20;96154.31;;;9.92;67.97
36192;BME280;22233;42.708;23.360;2022-10-16T03:11:46;96142.03;;;9.75;68.60
36192;BME280;22233;42.708;23.360;2022-10-16T03:14:12;96149.72;;;9.92;67.57
36192;BME280;22233;42.708;23.360;2022-10-16T03:16:38;96162.03;;;10.04;66.95
36192;BME280;22233;42.708;23.360;2022-10-16T03:19:03;96165.09;;;9.78;68.46
36192;BME280;22233;42.708;23.360;2022-10-16T03:21:29;96158.72;;;9.88;67.47
36192;BME280;22233;42.708;23.360;2022-10-16T03:23:54;96167.59;;;9.93;67.85
36192;BME280;22233;42.708;23.360;2022-10-16T03:26:20;96161.25;;;9.55;67.96
36192;BME280;22233;42.708;23.360;2022-10-16T03:28:45;96166.16;;;9.53;68.57
36192;BME280;22233;42.708;23.360;2022-10-16T03:31:10;96174.72;;;9.89;67.71
36192;BME280;22233;42.708;23.360;2022-10-16T03:33:36;96163.56;;;9.67;67.64
36192;BME280;22233;42.708;23.360;2022-10-16T03:36:01;96169.56;;;9.64;68.31
36192;BME280;22233;42.708;23.360;2022-10-16T03:38:27;96164.72;;;9.60;68.02
36192;BME280;22233;42.708;23.360;2022-10-16T03:40:52;96136.31;;;9.53;67.83
36192;BME280;22233;42.708;23.360;2022-10-16T03:43:17;96173.09;;;9.88;67.08
36192;BME280;22233;42.708;23.360;2022-10-16T03:45:43;96164.56;;;9.76;67.84
36192;BME280;22233;42.708;23.360;2022-10-16T03:48:08;96167.28;;;9.76;67.93
36192;BME280;22233;42.708;23.360;2022-10-16T03:50:34;96166.28;;;9.91;67.83
36192;BME280;22233;42.708;23.360;2022-10-16T03:52:59;96165.75;;;9.89;67.51
36192;BME280;22233;42.708;23.360;2022-10-16T03:55:24;96163.75;;;9.75;67.47
36192;BME280;22233;42.708;23.360;2022-10-16T03:57:50;96152.59;;;9.77;67.50
36192;BME280;22233;42.708;23.360;2022-10-16T04:00:15;96161.94;;;9.90;67.11
36192;BME280;22233;42.708;23.360;2022-10-16T04:02:41;96160.56;;;9.92;67.26
36192;BME280;22233;42.708;23.360;2022-10-16T04:05:07;96155.66;;;9.94;67.55
36192;BME280;22233;42.708;23.360;2022-10-16T04:07:32;96163.38;;;10.06;66.07
36192;BME280;22233;42.708;23.360;2022-10-16T04:09:57;96160.34;;;10.08;66.61
36192;BME280;22233;42.708;23.360;2022-10-16T04:12:25;96148.56;;;9.98;66.37
36192;BME280;22233;42.708;23.360;2022-10-16T04:14:50;96160.63;;;9.87;66.88
36192;BME280;22233;42.708;23.360;2022-10-16T04:17:15;96162.44;;;9.92;67.04
36192;BME280;22233;42.708;23.360;2022-10-16T04:19:41;96170.84;;;9.95;67.27
36192;BME280;22233;42.708;23.360;2022-10-16T04:22:06;96162.69;;;9.95;67.54
36192;BME280;22233;42.708;23.360;2022-10-16T04:24:31;96181.00;;;10.09;66.65
36192;BME280;22233;42.708;23.360;2022-10-16T04:26:57;96175.78;;;10.12;66.23
36192;BME280;22233;42.708;23.360;2022-10-16T04:29:22;96170.56;;;10.16;66.53
36192;BME280;22233;42.708;23.360;2022-10-16T04:31:48;96180.13;;;10.13;65.66
36192;BME280;22233;42.708;23.360;2022-10-16T04:34:13;96161.38;;;10.12;66.38
36192;BME280;22233;42.708;23.360;2022-10-16T04:36:38;96173.81;;;9.94;65.96
36192;BME280;22233;42.708;23.360;2022-10-16T04:39:04;96158.50;;;9.60;67.60
36192;BME280;22233;42.708;23.360;2022-10-16T04:41:29;96182.22;;;9.73;66.86
36192;BME280;22233;42.708;23.360;2022-10-16T04:43:55;96180.47;;;9.58;68.24
36192;BME280;22233;42.708;23.360;2022-10-16T04:46:20;96178.81;;;9.63;67.91
36192;BME280;22233;42.708;23.360;2022-10-16T04:48:45;96176.09;;;9.63;67.34
36192;BME280;22233;42.708;23.360;2022-10-16T04:51:12;96184.16;;;9.68;66.64
36192;BME280;22233;42.708;23.360;2022-10-16T04:53:37;96202.19;;;9.83;67.22
36192;BME280;22233;42.708;23.360;2022-10-16T04:56:03;96181.38;;;9.78;66.07
36192;BME280;22233;42.708;23.360;2022-10-16T04:58:28;96205.19;;;9.81;66.71
36192;BME280;22233;42.708;23.360;2022-10-16T05:00:54;96195.53;;;9.70;66.51
36192;BME280;22233;42.708;23.360;2022-10-16T05:03:19;96213.16;;;9.72;67.14
36192;BME280;22233;42.708;23.360;2022-10-16T05:05:45;96214.53;;;9.70;67.11
36192;BME280;22233;42.708;23.360;2022-10-16T05:08:13;96211.09;;;9.64;67.32
36192;BME280;22233;42.708;23.360;2022-10-16T05:10:40;96215.50;;;9.84;67.43
36192;BME280;22233;42.708;23.360;2022-10-16T05:13:06;96206.75;;;9.87;66.66
36192;BME280;22233;42.708;23.360;2022-10-16T05:15:31;96200.81;;;9.85;67.16
36192;BME280;22233;42.708;23.360;2022-10-16T05:17:56;96217.09;;;9.85;67.60
36192;BME280;22233;42.708;23.360;2022-10-16T05:20:22;96205.94;;;9.87;66.23
36192;BME280;22233;42.708;23.360;2022-10-16T05:22:48;96222.22;;;9.87;66.15
36192;BME280;22233;42.708;23.360;2022-10-16T05:25:13;96223.91;;;9.83;66.84
36192;BME280;22233;42.708;23.360;2022-10-16T05:27:39;96218.13;;;9.89;67.08
36192;BME280;22233;42.708;23.360;2022-10-16T05:30:04;96225.50;;;10.08;66.54
36192;BME280;22233;42.708;23.360;2022-10-16T05:32:30;96217.75;;;9.18;68.72
36192;BME280;22233;42.708;23.360;2022-10-16T05:34:55;96218.81;;;9.52;67.85
36192;BME280;22233;42.708;23.360;2022-10-16T05:37:21;96196.53;;;9.55;67.27
36192;BME280;22233;42.708;23.360;2022-10-16T05:39:46;96201.16;;;9.54;67.41
36192;BME280;22233;42.708;23.360;2022-10-16T05:42:12;96218.00;;;9.75;67.50
36192;BME280;22233;42.708;23.360;2022-10-16T05:44:37;96223.94;;;10.02;67.11
36192;BME280;22233;42.708;23.360;2022-10-16T05:47:03;96220.09;;;9.84;67.48
36192;BME280;22233;42.708;23.360;2022-10-16T05:49:28;96225.56;;;9.54;68.50
36192;BME280;22233;42.708;23.360;2022-10-16T05:51:53;96215.50;;;9.84;66.85
36192;BME280;22233;42.708;23.360;2022-10-16T05:54:19;96231.69;;;9.89;67.28
36192;BME280;22233;42.708;23.360;2022-10-16T05:56:44;96224.16;;;9.86;67.83
36192;BME280;22233;42.708;23.360;2022-10-16T05:59:09;96252.09;;;10.11;67.19
36192;BME280;22233;42.708;23.360;2022-10-16T06:01:35;96239.47;;;9.96;67.65
36192;BME280;22233;42.708;23.360;2022-10-16T06:04:01;96242.41;;;10.05;67.00
36192;BME280;22233;42.708;23.360;2022-10-16T06:06:27;96252.78;;;10.22;67.39
36192;BME280;22233;42.708;23.360;2022-10-16T06:08:54;96265.09;;;10.38;66.27
36192;BME280;22233;42.708;23.360;2022-10-16T06:11:28;96261.94;;;10.31;67.28
36192;BME280;22233;42.708;23.360;2022-10-16T06:13:58;96257.81;;;10.33;66.82
36192;BME280;22233;42.708;23.360;2022-10-16T06:16:26;96272.44;;;10.37;66.80
36192;BME280;22233;42.708;23.360;2022-10-16T06:18:52;96260.53;;;10.33;67.05
36192;BME280;22233;42.708;23.360;2022-10-16T06:21:20;96262.59;;;10.42;67.64
36192;BME280;22233;42.708;23.360;2022-10-16T06:23:46;96278.09;;;10.41;68.46
36192;BME280;22233;42.708;23.360;2022-10-16T06:26:14;96287.97;;;10.32;67.49
36192;BME280;22233;42.708;23.360;2022-10-16T06:28:40;96278.75;;;10.33;67.66
36192;BME280;22233;42.708;23.360;2022-10-16T06:31:07;96274.63;;;10.35;68.04
36192;BME280;22233;42.708;23.360;2022-10-16T06:33:33;96279.91;;;10.51;68.08
36192;BME280;22233;42.708;23.360;2022-10-16T06:36:10;96287.03;;;10.66;67.28
36192;BME280;22233;42.708;23.360;2022-10-16T06:38:37;96282.75;;;10.59;67.53
36192;BME280;22233;42.708;23.360;2022-10-16T06:41:03;96279.75;;;10.61;67.36
36192;BME280;22233;42.708;23.360;2022-10-16T06:43:29;96292.25;;;10.81;67.78
36192;BME280;22233;42.708;23.360;2022-10-16T06:46:00;96285.19;;;10.80;67.14
36192;BME280;22233;42.708;23.360;2022-10-16T06:48:26;96299.69;;;10.94;67.38
36192;BME280;22233;42.708;23.360;2022-10-16T06:51:24;96307.06;;;11.13;67.05
36192;BME280;22233;42.708;23.360;2022-10-16T06:53:54;96306.66;;;11.19;66.90
36192;BME280;22233;42.708;23.360;2022-10-16T06:56:24;96311.63;;;10.74;67.88
36192;BME280;22233;42.708;23.360;2022-10-16T06:58:50;96297.94;;;10.85;67.94
36192;BME280;22233;42.708;23.360;2022-10-16T07:01:17;96307.78;;;10.81;67.62
36192;BME280;22233;42.708;23.360;2022-10-16T07:03:44;96312.81;;;10.68;67.34
36192;BME280;22233;42.708;23.360;2022-10-16T07:06:12;96308.47;;;10.67;68.24
36192;BME280;22233;42.708;23.360;2022-10-16T07:08:40;96308.72;;;10.90;68.22
36192;BME280;22233;42.708;23.360;2022-10-16T07:11:08;96309.75;;;11.32;66.80
36192;BME280;22233;42.708;23.360;2022-10-16T07:13:38;96315.47;;;11.30;65.77
36192;BME280;22233;42.708;23.360;2022-10-16T07:16:24;96329.53;;;11.37;65.36
36192;BME280;22233;42.708;23.360;2022-10-16T07:18:49;96315.66;;;11.53;65.12
36192;BME280;22233;42.708;23.360;2022-10-16T07:21:21;96323.72;;;11.77;65.22
36192;BME280;22233;42.708;23.360;2022-10-16T07:23:53;96324.53;;;11.77;64.40
36192;BME280;22233;42.708;23.360;2022-10-16T07:26:19;96327.28;;;11.58;65.02
36192;BME280;22233;42.708;23.360;2022-10-16T07:28:45;96322.16;;;11.57;66.13
36192;BME280;22233;42.708;23.360;2022-10-16T07:31:12;96317.06;;;11.69;65.30
36192;BME280;22233;42.708;23.360;2022-10-16T07:33:39;96325.41;;;11.92;65.20
36192;BME280;22233;42.708;23.360;2022-10-16T07:36:07;96312.34;;;12.08;64.58
36192;BME280;22233;42.708;23.360;2022-10-16T07:38:35;96319.19;;;12.19;64.91
36192;BME280;22233;42.708;23.360;2022-10-16T07:41:04;96306.72;;;12.32;64.05
36192;BME280;22233;42.708;23.360;2022-10-16T07:43:31;96315.38;;;12.34;63.83
36192;BME280;22233;42.708;23.360;2022-10-16T07:45:56;96315.38;;;12.48;64.79
36192;BME280;22233;42.708;23.360;2022-10-16T07:48:23;96309.00;;;12.80;63.53
36192;BME280;22233;42.708;23.360;2022-10-16T07:50:49;96317.34;;;12.97;63.12
36192;BME280;22233;42.708;23.360;2022-10-16T07:53:15;96317.13;;;13.08;63.01
36192;BME280;22233;42.708;23.360;2022-10-16T07:55:40;96325.59;;;13.20;62.57
36192;BME280;22233;42.708;23.360;2022-10-16T07:58:06;96327.69;;;13.37;62.11
36192;BME280;22233;42.708;23.360;2022-10-16T08:00:32;96319.44;;;13.73;62.48
36192;BME280;22233;42.708;23.360;2022-10-16T08:02:59;96321.66;;;13.94;60.13
36192;BME280;22233;42.708;23.360;2022-10-16T08:05:26;96326.69;;;14.32;60.05
36192;BME280;22233;42.708;23.360;2022-10-16T08:07:52;96326.66;;;14.23;61.98
36192;BME280;22233;42.708;23.360;2022-10-16T08:10:19;96334.38;;;14.21;63.64
36192;BME280;22233;42.708;23.360;2022-10-16T08:12:45;96304.66;;;14.28;60.18
36192;BME280;22233;42.708;23.360;2022-10-16T08:15:10;96313.59;;;14.51;58.98
36192;BME280;22233;42.708;23.360;2022-10-16T08:17:36;96319.47;;;14.67;58.48
36192;BME280;22233;42.708;23.360;2022-10-16T08:20:01;96299.00;;;14.56;58.63
36192;BME280;22233;42.708;23.360;2022-10-16T08:22:27;96323.19;;;14.71;60.56
36192;BME280;22233;42.708;23.360;2022-10-16T08:24:53;96303.63;;;14.47;59.54
36192;BME280;22233;42.708;23.360;2022-10-16T08:27:19;96321.81;;;15.09;57.98
36192;BME280;22233;42.708;23.360;2022-10-16T08:29:44;96314.75;;;15.08;58.29
36192;BME280;22233;42.708;23.360;2022-10-16T08:32:10;96309.13;;;15.39;57.18
36192;BME280;22233;42.708;23.360;2022-10-16T08:34:35;96316.50;;;15.04;57.82
36192;BME280;22233;42.708;23.360;2022-10-16T08:37:00;96316.53;;;15.30;57.48
36192;BME280;22233;42.708;23.360;2022-10-16T08:39:26;96311.56;;;15.49;56.23
36192;BME280;22233;42.708;23.360;2022-10-16T08:50:26;96308.75;;;16.10;56.02
36192;BME280;22233;42.708;23.360;2022-10-16T08:52:53;96309.03;;;16.26;52.02
36192;BME280;22233;42.708;23.360;2022-10-16T08:57:54;96293.13;;;16.49;50.67
36192;BME280;22233;42.708;23.360;2022-10-16T09:00:19;96317.06;;;16.40;50.93
36192;BME280;22233;42.708;23.360;2022-10-16T09:02:51;96309.94;;;16.77;49.83
36192;BME280;22233;42.708;23.360;2022-10-16T09:06:07;96321.97;;;16.94;49.66
36192;BME280;22233;42.708;23.360;2022-10-16T09:10:57;96320.94;;;17.28;48.55
36192;BME280;22233;42.708;23.360;2022-10-16T09:13:46;96311.66;;;17.21;48.47
36192;BME280;22233;42.708;23.360;2022-10-16T09:19:01;96319.09;;;17.41;48.02
36192;BME280;22233;42.708;23.360;2022-10-16T09:21:35;96310.09;;;17.32;47.95
36192;BME280;22233;42.708;23.360;2022-10-16T09:26:35;96304.34;;;17.67;46.39
36192;BME280;22233;42.708;23.360;2022-10-16T09:29:00;96312.63;;;17.79;46.32
36192;BME280;22233;42.708;23.360;2022-10-16T09:31:27;96290.59;;;17.88;43.53
36192;BME280;22233;42.708;23.360;2022-10-16T09:34:00;96303.25;;;18.01;45.99
36192;BME280;22233;42.708;23.360;2022-10-16T09:36:39;96306.44;;;18.03;45.24
36192;BME280;22233;42.708;23.360;2022-10-16T09:39:09;96298.72;;;18.30;45.68
36192;BME280;22233;42.708;23.360;2022-10-16T09:41:43;96296.84;;;18.09;45.31
36192;BME280;22233;42.708;23.360;2022-10-16T09:44:23;96309.16;;;18.36;45.64
36192;BME280;22233;42.708;23.360;2022-10-16T09:47:01;96295.88;;;17.93;46.21
36192;BME280;22233;42.708;23.360;2022-10-16T09:49:26;96293.31;;;18.21;46.19
36192;BME280;22233;42.708;23.360;2022-10-16T09:52:24;96293.34;;;18.46;45.85
36192;BME280;22233;42.708;23.360;2022-10-16T09:54:54;96288.28;;;18.23;45.69
36192;BME280;22233;42.708;23.360;2022-10-16T09:57:21;96286.22;;;18.45;44.74
36192;BME280;22233;42.708;23.360;2022-10-16T09:59:52;96288.75;;;17.92;44.69
36192;BME280;22233;42.708;23.360;2022-10-16T10:02:37;96281.63;;;17.57;46.61
36192;BME280;22233;42.708;23.360;2022-10-16T10:05:05;96279.06;;;18.07;46.74
36192;BME280;22233;42.708;23.360;2022-10-16T10:07:39;96283.47;;;18.32;46.41
36192;BME280;22233;42.708;23.360;2022-10-16T10:12:49;96282.69;;;18.69;45.54
36192;BME280;22233;42.708;23.360;2022-10-16T10:15:15;96265.16;;;18.73;44.65
36192;BME280;22233;42.708;23.360;2022-10-16T10:17:56;96276.94;;;19.11;44.24
36192;BME280;22233;42.708;23.360;2022-10-16T10:20:35;96258.63;;;18.78;44.48
36192;BME280;22233;42.708;23.360;2022-10-16T10:23:27;96276.34;;;19.30;44.87
36192;BME280;22233;42.708;23.360;2022-10-16T10:31:17;96262.22;;;19.72;43.85
36192;BME280;22233;42.708;23.360;2022-10-16T10:33:53;96267.25;;;19.82;43.29
36192;BME280;22233;42.708;23.360;2022-10-16T10:46:56;96243.13;;;19.79;44.05
36192;BME280;22233;42.708;23.360;2022-10-16T10:55:09;96245.56;;;19.40;43.22
36192;BME280;22233;42.708;23.360;2022-10-16T10:58:04;96249.16;;;19.56;43.75
36192;BME280;22233;42.708;23.360;2022-10-16T11:05:51;96236.88;;;20.10;42.27
36192;BME280;22233;42.708;23.360;2022-10-16T11:08:20;96237.66;;;20.11;42.60
36192;BME280;22233;42.708;23.360;2022-10-16T11:11:04;96222.34;;;20.29;41.35
36192;BME280;22233;42.708;23.360;2022-10-16T11:16:30;96219.59;;;20.97;40.89
36192;BME280;22233;42.708;23.360;2022-10-16T11:19:48;96223.63;;;20.99;40.64
36192;BME280;22233;42.708;23.360;2022-10-16T11:22:27;96211.50;;;20.52;40.66
36192;BME280;22233;42.708;23.360;2022-10-16T11:25:18;96215.28;;;20.80;40.24
36192;BME280;22233;42.708;23.360;2022-10-16T11:27:54;96222.59;;;20.56;41.00
36192;BME280;22233;42.708;23.360;2022-10-16T11:30:25;96214.53;;;20.31;41.32
36192;BME280;22233;42.708;23.360;2022-10-16T11:35:37;96213.09;;;20.69;40.72
36192;BME280;22233;42.708;23.360;2022-10-16T11:38:54;96217.84;;;21.24;40.23
36192;BME280;22233;42.708;23.360;2022-10-16T11:40:59;96196.16;;;21.06;39.63
36192;BME280;22233;42.708;23.360;2022-10-16T11:43:36;96210.69;;;21.23;39.25
36192;BME280;22233;42.708;23.360;2022-10-16T11:46:10;96203.38;;;21.30;39.97
36192;BME280;22233;42.708;23.360;2022-10-16T11:48:43;96219.16;;;21.69;39.83
36192;BME280;22233;42.708;23.360;2022-10-16T11:51:36;96217.91;;;21.86;38.73
36192;BME280;22233;42.708;23.360;2022-10-16T11:56:46;96210.63;;;22.20;37.58
36192;BME280;22233;42.708;23.360;2022-10-16T11:59:33;96198.59;;;22.32;36.77
36192;BME280;22233;42.708;23.360;2022-10-16T12:02:25;96209.13;;;22.49;37.25
36192;BME280;22233;42.708;23.360;2022-10-16T12:05:12;96208.75;;;22.24;36.40
36192;BME280;22233;42.708;23.360;2022-10-16T12:07:50;96199.66;;;22.24;36.71
36192;BME280;22233;42.708;23.360;2022-10-16T12:10:20;96212.38;;;22.28;36.83
36192;BME280;22233;42.708;23.360;2022-10-16T12:12:45;96212.16;;;22.41;36.81
36192;BME280;22233;42.708;23.360;2022-10-16T12:17:45;96213.16;;;22.29;36.52
36192;BME280;22233;42.708;23.360;2022-10-16T12:22:36;96211.94;;;22.26;36.54
36192;BME280;22233;42.708;23.360;2022-10-16T12:25:02;96211.75;;;22.65;36.19
36192;BME280;22233;42.708;23.360;2022-10-16T12:27:30;96207.63;;;22.79;35.89
36192;BME280;22233;42.708;23.360;2022-10-16T12:29:58;96194.91;;;22.74;35.86
36192;BME280;22233;42.708;23.360;2022-10-16T12:32:29;96213.16;;;22.29;35.83
36192;BME280;22233;42.708;23.360;2022-10-16T12:34:55;96215.44;;;22.73;36.15
36192;BME280;22233;42.708;23.360;2022-10-16T12:37:24;96211.00;;;23.22;35.29
36192;BME280;22233;42.708;23.360;2022-10-16T12:39:52;96207.06;;;23.53;34.52
36192;BME280;22233;42.708;23.360;2022-10-16T12:44:54;96195.66;;;23.28;34.72
36192;BME280;22233;42.708;23.360;2022-10-16T12:49:57;96213.88;;;22.72;35.10
36192;BME280;22233;42.708;23.360;2022-10-16T12:52:36;96205.22;;;22.77;34.67
36192;BME280;22233;42.708;23.360;2022-10-16T12:55:02;96215.16;;;23.05;35.03
36192;BME280;22233;42.708;23.360;2022-10-16T12:57:38;96207.81;;;23.20;34.52
36192;BME280;22233;42.708;23.360;2022-10-16T13:00:17;96219.00;;;23.57;33.69
36192;BME280;22233;42.708;23.360;2022-10-16T13:29:41;96217.91;;;24.44;29.95
36192;BME280;22233;42.708;23.360;2022-10-16T13:32:09;96212.28;;;24.37;30.28
36192;BME280;22233;42.708;23.360;2022-10-16T13:34:48;96222.56;;;24.29;29.71
36192;BME280;22233;42.708;23.360;2022-10-16T13:37:31;96220.63;;;24.37;29.37
36192;BME280;22233;42.708;23.360;2022-10-16T13:42:44;96230.41;;;24.64;29.64
36192;BME280;22233;42.708;23.360;2022-10-16T13:45:24;96230.06;;;24.69;29.41
36192;BME280;22233;42.708;23.360;2022-10-16T13:48:04;96225.31;;;24.74;28.92
36192;BME280;22233;42.708;23.360;2022-10-16T13:50:30;96230.19;;;24.87;29.78
36192;BME280;22233;42.708;23.360;2022-10-16T13:53:14;96228.69;;;25.01;29.21
36192;BME280;22233;42.708;23.360;2022-10-16T13:55:40;96239.91;;;25.19;29.16
36192;BME280;22233;42.708;23.360;2022-10-16T13:58:13;96229.94;;;25.10;29.06
36192;BME280;22233;42.708;23.360;2022-10-16T14:00:38;96233.69;;;24.81;29.16
36192;BME280;22233;42.708;23.360;2022-10-16T14:03:11;96239.97;;;24.70;28.85
36192;BME280;22233;42.708;23.360;2022-10-16T14:05:46;96240.31;;;24.62;29.34
36192;BME280;22233;42.708;23.360;2022-10-16T14:08:13;96228.91;;;24.74;29.41
36192;BME280;22233;42.708;23.360;2022-10-16T14:10:38;96240.91;;;24.89;29.23
36192;BME280;22233;42.708;23.360;2022-10-16T14:13:06;96230.88;;;24.74;29.45
36192;BME280;22233;42.708;23.360;2022-10-16T14:15:34;96243.25;;;24.83;28.94
36192;BME280;22233;42.708;23.360;2022-10-16T14:18:00;96248.28;;;24.67;28.66
36192;BME280;22233;42.708;23.360;2022-10-16T14:20:28;96246.50;;;24.48;29.04
36192;BME280;22233;42.708;23.360;2022-10-16T14:25:46;96250.69;;;24.68;29.53
36192;BME280;22233;42.708;23.360;2022-10-16T14:28:22;96252.66;;;24.68;29.35
36192;BME280;22233;42.708;23.360;2022-10-16T14:30:54;96243.19;;;24.31;29.15
36192;BME280;22233;42.708;23.360;2022-10-16T14:38:35;96261.84;;;23.93;29.58
36192;BME280;22233;42.708;23.360;2022-10-16T14:41:03;96250.44;;;23.68;29.42
36192;BME280;22233;42.708;23.360;2022-10-16T14:43:39;96256.72;;;23.96;29.72
36192;BME280;22233;42.708;23.360;2022-10-16T14:46:16;96271.25;;;24.19;29.80
36192;BME280;22233;42.708;23.360;2022-10-16T14:48:46;96262.38;;;24.06;29.77
36192;BME280;22233;42.708;23.360;2022-10-16T14:51:17;96266.88;;;23.54;32.48
36192;BME280;22233;42.708;23.360;2022-10-16T14:53:42;96266.03;;;23.20;31.10
36192;BME280;22233;42.708;23.360;2022-10-16T14:56:23;96259.47;;;22.78;31.83
36192;BME280;22233;42.708;23.360;2022-10-16T14:58:52;96270.97;;;22.57;32.49
36192;BME280;22233;42.708;23.360;2022-10-16T15:01:17;96278.50;;;22.33;32.94